sensor_id;sensor_type;location;lat;lon;timestamp;temperature;humidity
15705;DHT22;7952;48.396;12.806;2022-09-27T06:00:47;13.40;59.50
15705;DHT22;7952;48.396;12.806;2022-09-27T06:10:31;13.40;59.50
15705;DHT22;7952;48.396;12.806;2022-09-27T07:06:47;13.40;59.60
15705;DHT22;7952;48.396;12.806;2022-09-27T08:24:35;13.70;59.90
15705;DHT22;7952;48.396;12.806;2022-09-27T08:33:53;14.20;60.00
15705;DHT22;7952;48.396;12.806;2022-09-27T09:00:43;15.70;59.50
15705;DHT22;7952;48.396;12.806;2022-09-27T11:15:32;16.80;59.50
15705;DHT22;7952;48.396;12.806;2022-09-27T15:17:34;15.00;58.50
15705;DHT22;7952;48.396;12.806;2022-09-27T16:04:51;14.80;58.20
15705;DHT22;7952;48.396;12.806;2022-09-27T17:21:55;13.30;57.90
15705;DHT22;7952;48.396;12.806;2022-09-27T17:35:15;13.20;57.90
15705;DHT22;7952;48.396;12.806;2022-09-27T17:38:07;13.20;57.90
15705;DHT22;7952;48.396;12.806;2022-09-27T17:40:33;13.10;57.90
15705;DHT22;7952;48.396;12.806;2022-09-27T17:49:33;12.90;57.90
15705;DHT22;7952;48.396;12.806;2022-09-27T17:52:18;12.90;58.00
15705;DHT22;7952;48.396;12.806;2022-09-27T17:54:44;12.80;58.10
15705;DHT22;7952;48.396;12.806;2022-09-27T17:57:11;12.70;58.10
15705;DHT22;7952;48.396;12.806;2022-09-27T17:59:37;12.70;58.20
15705;DHT22;7952;48.396;12.806;2022-09-27T18:02:12;12.70;58.30
15705;DHT22;7952;48.396;12.806;2022-09-27T18:05:27;12.70;58.20
15705;DHT22;7952;48.396;12.806;2022-09-27T18:07:54;12.70;58.30
15705;DHT22;7952;48.396;12.806;2022-09-27T18:10:36;12.70;58.20
15705;DHT22;7952;48.396;12.806;2022-09-27T18:13:02;12.70;58.20
15705;DHT22;7952;48.396;12.806;2022-09-27T18:15:30;12.70;58.20
15705;DHT22;7952;48.396;12.806;2022-09-27T18:17:55;12.70;58.20
15705;DHT22;7952;48.396;12.806;2022-09-27T18:20:21;12.70;58.20
15705;DHT22;7952;48.396;12.806;2022-09-27T18:22:47;12.70;58.20
15705;DHT22;7952;48.396;12.806;2022-09-27T18:25:13;12.70;58.20
15705;DHT22;7952;48.396;12.806;2022-09-27T18:27:41;12.70;58.20
15705;DHT22;7952;48.396;12.806;2022-09-27T18:30:29;12.70;58.20
15705;DHT22;7952;48.396;12.806;2022-09-27T18:33:00;12.70;58.10
15705;DHT22;7952;48.396;12.806;2022-09-27T18:35:36;12.70;58.10
15705;DHT22;7952;48.396;12.806;2022-09-27T18:38:17;12.70;58.20
15705;DHT22;7952;48.396;12.806;2022-09-27T18:40:56;12.70;58.10
15705;DHT22;7952;48.396;12.806;2022-09-27T18:43:24;12.70;58.00
15705;DHT22;7952;48.396;12.806;2022-09-27T18:45:50;12.70;58.00
15705;DHT22;7952;48.396;12.806;2022-09-27T18:48:19;12.70;58.00
15705;DHT22;7952;48.396;12.806;2022-09-27T18:50:47;12.70;58.00
15705;DHT22;7952;48.396;12.806;2022-09-27T18:53:33;12.70;57.90
15705;DHT22;7952;48.396;12.806;2022-09-27T18:56:10;12.70;57.90
15705;DHT22;7952;48.396;12.806;2022-09-27T18:58:37;12.70;57.90
15705;DHT22;7952;48.396;12.806;2022-09-27T19:01:23;12.60;57.90
15705;DHT22;7952;48.396;12.806;2022-09-27T19:03:50;12.60;58.00
15705;DHT22;7952;48.396;12.806;2022-09-27T19:06:25;12.60;57.90
15705;DHT22;7952;48.396;12.806;2022-09-27T19:08:55;12.60;57.90
15705;DHT22;7952;48.396;12.806;2022-09-27T19:11:23;12.50;57.80
15705;DHT22;7952;48.396;12.806;2022-09-27T19:13:56;12.50;57.90
15705;DHT22;7952;48.396;12.806;2022-09-27T19:16:26;12.40;57.90
15705;DHT22;7952;48.396;12.806;2022-09-27T19:18:52;12.40;57.90
15705;DHT22;7952;48.396;12.806;2022-09-27T19:21:23;12.30;57.90
15705;DHT22;7952;48.396;12.806;2022-09-27T19:23:49;12.20;57.90
15705;DHT22;7952;48.396;12.806;2022-09-27T19:26:18;12.20;58.00
15705;DHT22;7952;48.396;12.806;2022-09-27T19:28:45;12.20;58.00
15705;DHT22;7952;48.396;12.806;2022-09-27T19:31:16;12.10;58.00
15705;DHT22;7952;48.396;12.806;2022-09-27T19:33:43;12.10;58.10
15705;DHT22;7952;48.396;12.806;2022-09-27T19:36:11;12.00;58.10
15705;DHT22;7952;48.396;12.806;2022-09-27T19:38:37;11.90;58.00
15705;DHT22;7952;48.396;12.806;2022-09-27T19:41:05;11.90;58.10
15705;DHT22;7952;48.396;12.806;2022-09-27T19:43:31;11.80;58.10
15705;DHT22;7952;48.396;12.806;2022-09-27T19:46:08;11.80;58.10
15705;DHT22;7952;48.396;12.806;2022-09-27T19:48:36;11.80;58.20
15705;DHT22;7952;48.396;12.806;2022-09-27T19:51:03;11.70;58.10
15705;DHT22;7952;48.396;12.806;2022-09-27T19:53:30;11.70;58.20
15705;DHT22;7952;48.396;12.806;2022-09-27T19:56:00;11.70;58.20
15705;DHT22;7952;48.396;12.806;2022-09-27T19:58:27;11.70;58.30
15705;DHT22;7952;48.396;12.806;2022-09-27T20:01:28;11.70;58.30
15705;DHT22;7952;48.396;12.806;2022-09-27T20:03:54;11.70;58.30
15705;DHT22;7952;48.396;12.806;2022-09-27T20:06:21;11.70;58.40
15705;DHT22;7952;48.396;12.806;2022-09-27T20:08:48;11.70;58.40
15705;DHT22;7952;48.396;12.806;2022-09-27T20:11:22;11.70;58.40
15705;DHT22;7952;48.396;12.806;2022-09-27T20:13:48;11.70;58.40
15705;DHT22;7952;48.396;12.806;2022-09-27T20:16:21;11.70;58.40
15705;DHT22;7952;48.396;12.806;2022-09-27T20:18:49;11.70;58.30
15705;DHT22;7952;48.396;12.806;2022-09-27T20:21:15;11.70;58.30
15705;DHT22;7952;48.396;12.806;2022-09-27T20:23:42;11.80;58.40
15705;DHT22;7952;48.396;12.806;2022-09-27T20:26:14;11.80;58.30
15705;DHT22;7952;48.396;12.806;2022-09-27T20:28:45;11.80;58.20
15705;DHT22;7952;48.396;12.806;2022-09-27T20:31:14;11.80;58.20
15705;DHT22;7952;48.396;12.806;2022-09-27T20:33:40;11.90;58.30
15705;DHT22;7952;48.396;12.806;2022-09-27T20:36:20;11.90;58.30
15705;DHT22;7952;48.396;12.806;2022-09-27T20:38:49;12.00;58.30
15705;DHT22;7952;48.396;12.806;2022-09-27T20:41:16;12.00;58.60
15705;DHT22;7952;48.396;12.806;2022-09-27T20:43:43;12.00;58.20
15705;DHT22;7952;48.396;12.806;2022-09-27T20:46:17;12.00;58.20
15705;DHT22;7952;48.396;12.806;2022-09-27T20:48:43;12.00;58.80
15705;DHT22;7952;48.396;12.806;2022-09-27T20:51:13;12.10;58.20
15705;DHT22;7952;48.396;12.806;2022-09-27T20:53:40;12.10;58.20
15705;DHT22;7952;48.396;12.806;2022-09-27T20:56:36;12.10;58.20
15705;DHT22;7952;48.396;12.806;2022-09-27T20:59:06;12.20;58.20
15705;DHT22;7952;48.396;12.806;2022-09-27T21:01:40;12.20;58.20
15705;DHT22;7952;48.396;12.806;2022-09-27T21:04:05;12.20;58.20
15705;DHT22;7952;48.396;12.806;2022-09-27T21:06:36;12.30;58.20
15705;DHT22;7952;48.396;12.806;2022-09-27T21:09:04;12.30;58.20
15705;DHT22;7952;48.396;12.806;2022-09-27T21:11:31;12.30;58.20
15705;DHT22;7952;48.396;12.806;2022-09-27T21:13:56;12.30;58.20
15705;DHT22;7952;48.396;12.806;2022-09-27T21:16:25;12.30;58.20
15705;DHT22;7952;48.396;12.806;2022-09-27T21:18:58;12.30;58.10
15705;DHT22;7952;48.396;12.806;2022-09-27T21:21:24;12.30;58.10
15705;DHT22;7952;48.396;12.806;2022-09-27T21:23:58;12.30;58.20
15705;DHT22;7952;48.396;12.806;2022-09-27T21:26:26;12.30;58.10
15705;DHT22;7952;48.396;12.806;2022-09-27T21:28:54;12.30;58.10
15705;DHT22;7952;48.396;12.806;2022-09-27T21:34:01;12.30;58.20
15705;DHT22;7952;48.396;12.806;2022-09-27T21:36:33;12.30;58.20
15705;DHT22;7952;48.396;12.806;2022-09-27T21:39:03;12.30;58.20
15705;DHT22;7952;48.396;12.806;2022-09-27T21:42:18;12.40;58.20
15705;DHT22;7952;48.396;12.806;2022-09-27T21:44:41;12.40;58.80
15705;DHT22;7952;48.396;12.806;2022-09-27T21:47:20;12.40;58.20
15705;DHT22;7952;48.396;12.806;2022-09-27T21:49:46;12.40;58.20
15705;DHT22;7952;48.396;12.806;2022-09-27T21:52:12;12.40;58.20
15705;DHT22;7952;48.396;12.806;2022-09-27T21:54:40;12.40;58.20
15705;DHT22;7952;48.396;12.806;2022-09-27T21:57:05;12.40;58.20
15705;DHT22;7952;48.396;12.806;2022-09-27T21:59:31;12.40;58.20
15705;DHT22;7952;48.396;12.806;2022-09-27T22:01:56;12.40;58.20
15705;DHT22;7952;48.396;12.806;2022-09-27T22:04:22;12.40;58.20
15705;DHT22;7952;48.396;12.806;2022-09-27T22:06:48;12.40;58.20
15705;DHT22;7952;48.396;12.806;2022-09-27T22:09:16;12.40;58.20
15705;DHT22;7952;48.396;12.806;2022-09-27T22:11:42;12.40;58.20
15705;DHT22;7952;48.396;12.806;2022-09-27T22:14:16;12.40;58.20
15705;DHT22;7952;48.396;12.806;2022-09-27T22:16:42;12.30;58.20
15705;DHT22;7952;48.396;12.806;2022-09-27T22:19:10;12.40;58.20
15705;DHT22;7952;48.396;12.806;2022-09-27T22:21:37;12.30;58.20
15705;DHT22;7952;48.396;12.806;2022-09-27T22:24:05;12.40;58.30
15705;DHT22;7952;48.396;12.806;2022-09-27T22:26:33;12.30;58.20
15705;DHT22;7952;48.396;12.806;2022-09-27T22:28:59;12.30;58.20
15705;DHT22;7952;48.396;12.806;2022-09-27T22:31:26;12.30;58.20
15705;DHT22;7952;48.396;12.806;2022-09-27T22:33:58;12.30;58.50
15705;DHT22;7952;48.396;12.806;2022-09-27T22:36:27;12.30;58.20
15705;DHT22;7952;48.396;12.806;2022-09-27T22:38:54;12.30;58.20
15705;DHT22;7952;48.396;12.806;2022-09-27T22:41:20;12.30;58.20
15705;DHT22;7952;48.396;12.806;2022-09-27T22:43:46;12.30;58.20
15705;DHT22;7952;48.396;12.806;2022-09-27T22:46:13;12.30;58.20
15705;DHT22;7952;48.396;12.806;2022-09-27T22:48:39;12.30;58.20
15705;DHT22;7952;48.396;12.806;2022-09-27T22:51:05;12.20;58.20
15705;DHT22;7952;48.396;12.806;2022-09-27T22:53:33;12.10;58.10
15705;DHT22;7952;48.396;12.806;2022-09-27T22:56:04;12.10;58.20
15705;DHT22;7952;48.396;12.806;2022-09-27T22:58:31;12.00;58.20
15705;DHT22;7952;48.396;12.806;2022-09-27T23:00:58;12.00;58.30
15705;DHT22;7952;48.396;12.806;2022-09-27T23:03:24;11.90;58.30
15705;DHT22;7952;48.396;12.806;2022-09-27T23:05:49;11.90;58.30
15705;DHT22;7952;48.396;12.806;2022-09-27T23:08:36;11.80;58.30
15705;DHT22;7952;48.396;12.806;2022-09-27T23:11:06;11.80;58.40
15705;DHT22;7952;48.396;12.806;2022-09-27T23:13:35;11.80;58.50
15705;DHT22;7952;48.396;12.806;2022-09-27T23:16:03;11.70;58.40
15705;DHT22;7952;48.396;12.806;2022-09-27T23:18:29;11.70;58.50
15705;DHT22;7952;48.396;12.806;2022-09-27T23:20:59;11.70;58.50
15705;DHT22;7952;48.396;12.806;2022-09-27T23:23:31;11.70;58.50
15705;DHT22;7952;48.396;12.806;2022-09-27T23:26:01;11.70;58.50
15705;DHT22;7952;48.396;12.806;2022-09-27T23:28:28;11.70;59.10
15705;DHT22;7952;48.396;12.806;2022-09-27T23:30:54;11.60;58.50
15705;DHT22;7952;48.396;12.806;2022-09-27T23:33:20;11.60;58.50
15705;DHT22;7952;48.396;12.806;2022-09-27T23:35:47;11.60;58.50
15705;DHT22;7952;48.396;12.806;2022-09-27T23:38:13;11.50;58.50
15705;DHT22;7952;48.396;12.806;2022-09-27T23:40:39;11.50;58.50
15705;DHT22;7952;48.396;12.806;2022-09-27T23:43:05;11.50;58.60
15705;DHT22;7952;48.396;12.806;2022-09-27T23:45:31;11.50;58.60
15705;DHT22;7952;48.396;12.806;2022-09-27T23:47:58;11.50;58.60
15705;DHT22;7952;48.396;12.806;2022-09-27T23:50:24;11.50;58.60
15705;DHT22;7952;48.396;12.806;2022-09-27T23:52:50;11.50;58.60
15705;DHT22;7952;48.396;12.806;2022-09-27T23:56:07;11.50;58.60
15705;DHT22;7952;48.396;12.806;2022-09-27T23:58:37;11.50;58.70
